sensor_id;sensor_type;location;lat;lon;timestamp;temperature;humidity
11855;DHT22;5987;53.140;8.904;2024-02-04T00:01:54;8.50;99.90
11855;DHT22;5987;53.140;8.904;2024-02-04T00:04:59;8.50;99.90
11855;DHT22;5987;53.140;8.904;2024-02-04T00:08:03;8.40;99.90
11855;DHT22;5987;53.140;8.904;2024-02-04T00:11:09;8.40;99.90
11855;DHT22;5987;53.140;8.904;2024-02-04T00:14:14;8.40;99.90
11855;DHT22;5987;53.140;8.904;2024-02-04T00:17:17;8.40;99.90
11855;DHT22;5987;53.140;8.904;2024-02-04T00:20:21;8.30;99.90
11855;DHT22;5987;53.140;8.904;2024-02-04T00:23:26;8.30;99.90
11855;DHT22;5987;53.140;8.904;2024-02-04T00:26:31;8.40;99.90
11855;DHT22;5987;53.140;8.904;2024-02-04T00:29:35;8.30;99.90
11855;DHT22;5987;53.140;8.904;2024-02-04T00:32:39;8.20;99.90
11855;DHT22;5987;53.140;8.904;2024-02-04T00:35:42;8.20;99.90
11855;DHT22;5987;53.140;8.904;2024-02-04T00:38:46;8.20;99.90
11855;DHT22;5987;53.140;8.904;2024-02-04T00:41:51;8.10;99.90
11855;DHT22;5987;53.140;8.904;2024-02-04T00:44:55;8.10;99.90
11855;DHT22;5987;53.140;8.904;2024-02-04T00:47:59;8.10;99.90
11855;DHT22;5987;53.140;8.904;2024-02-04T00:51:03;8.10;99.90
11855;DHT22;5987;53.140;8.904;2024-02-04T00:54:07;8.10;99.90
11855;DHT22;5987;53.140;8.904;2024-02-04T00:57:12;8.10;99.90
11855;DHT22;5987;53.140;8.904;2024-02-04T01:00:16;8.00;99.90
11855;DHT22;5987;53.140;8.904;2024-02-04T01:03:20;8.00;99.90
11855;DHT22;5987;53.140;8.904;2024-02-04T01:06:24;8.00;99.90
11855;DHT22;5987;53.140;8.904;2024-02-04T01:09:33;7.90;99.90
11855;DHT22;5987;53.140;8.904;2024-02-04T01:12:38;7.90;99.90
11855;DHT22;5987;53.140;8.904;2024-02-04T01:15:42;7.90;99.90
11855;DHT22;5987;53.140;8.904;2024-02-04T01:18:46;7.90;99.90
11855;DHT22;5987;53.140;8.904;2024-02-04T01:21:50;7.90;99.90
11855;DHT22;5987;53.140;8.904;2024-02-04T01:24:54;7.80;99.90
11855;DHT22;5987;53.140;8.904;2024-02-04T01:27:59;7.80;99.90
11855;DHT22;5987;53.140;8.904;2024-02-04T01:31:03;7.80;99.90
11855;DHT22;5987;53.140;8.904;2024-02-04T01:34:07;7.80;99.90
11855;DHT22;5987;53.140;8.904;2024-02-04T01:37:11;7.80;99.90
11855;DHT22;5987;53.140;8.904;2024-02-04T01:40:15;7.70;99.90
11855;DHT22;5987;53.140;8.904;2024-02-04T01:43:20;7.70;99.90
11855;DHT22;5987;53.140;8.904;2024-02-04T01:46:24;7.70;99.90
11855;DHT22;5987;53.140;8.904;2024-02-04T01:49:28;7.70;99.90
11855;DHT22;5987;53.140;8.904;2024-02-04T01:52:34;7.70;99.90
11855;DHT22;5987;53.140;8.904;2024-02-04T01:55:40;7.70;99.90
11855;DHT22;5987;53.140;8.904;2024-02-04T01:58:46;7.70;99.90
11855;DHT22;5987;53.140;8.904;2024-02-04T02:01:51;7.70;99.90
11855;DHT22;5987;53.140;8.904;2024-02-04T02:04:54;7.70;99.90
11855;DHT22;5987;53.140;8.904;2024-02-04T02:07:59;7.70;99.90
11855;DHT22;5987;53.140;8.904;2024-02-04T02:11:07;7.70;99.90
11855;DHT22;5987;53.140;8.904;2024-02-04T02:14:19;7.70;99.90
11855;DHT22;5987;53.140;8.904;2024-02-04T02:17:32;7.70;99.90
11855;DHT22;5987;53.140;8.904;2024-02-04T02:21:01;7.70;99.90
11855;DHT22;5987;53.140;8.904;2024-02-04T02:24:26;7.60;99.90
11855;DHT22;5987;53.140;8.904;2024-02-04T02:27:35;7.60;99.90
11855;DHT22;5987;53.140;8.904;2024-02-04T02:30:49;7.60;99.90
11855;DHT22;5987;53.140;8.904;2024-02-04T02:33:53;7.50;99.90
11855;DHT22;5987;53.140;8.904;2024-02-04T02:37:02;7.50;99.90
11855;DHT22;5987;53.140;8.904;2024-02-04T02:40:19;7.50;99.90
11855;DHT22;5987;53.140;8.904;2024-02-04T02:43:27;7.50;99.90
11855;DHT22;5987;53.140;8.904;2024-02-04T02:46:33;7.50;99.90
11855;DHT22;5987;53.140;8.904;2024-02-04T02:49:37;7.40;99.90
11855;DHT22;5987;53.140;8.904;2024-02-04T02:52:41;7.40;99.90
11855;DHT22;5987;53.140;8.904;2024-02-04T02:55:46;7.50;99.90
11855;DHT22;5987;53.140;8.904;2024-02-04T02:58:50;7.40;99.90
11855;DHT22;5987;53.140;8.904;2024-02-04T03:01:53;7.40;99.90
11855;DHT22;5987;53.140;8.904;2024-02-04T03:04:57;7.40;99.90
11855;DHT22;5987;53.140;8.904;2024-02-04T03:08:01;7.40;99.90
11855;DHT22;5987;53.140;8.904;2024-02-04T03:11:06;7.40;99.90
11855;DHT22;5987;53.140;8.904;2024-02-04T03:14:10;7.30;99.90
11855;DHT22;5987;53.140;8.904;2024-02-04T03:17:14;7.40;99.90
11855;DHT22;5987;53.140;8.904;2024-02-04T03:20:22;7.30;99.90
11855;DHT22;5987;53.140;8.904;2024-02-04T03:23:26;7.30;99.90
11855;DHT22;5987;53.140;8.904;2024-02-04T03:26:31;7.30;99.90
11855;DHT22;5987;53.140;8.904;2024-02-04T03:29:35;7.30;99.90
11855;DHT22;5987;53.140;8.904;2024-02-04T03:32:39;7.30;99.90
11855;DHT22;5987;53.140;8.904;2024-02-04T03:35:42;7.20;99.90
11855;DHT22;5987;53.140;8.904;2024-02-04T03:38:46;7.20;99.90
11855;DHT22;5987;53.140;8.904;2024-02-04T03:41:51;7.20;99.90
11855;DHT22;5987;53.140;8.904;2024-02-04T03:44:55;7.20;99.90
11855;DHT22;5987;53.140;8.904;2024-02-04T03:47:59;7.20;99.90
11855;DHT22;5987;53.140;8.904;2024-02-04T03:51:04;7.20;99.90
11855;DHT22;5987;53.140;8.904;2024-02-04T03:54:07;7.10;99.90
11855;DHT22;5987;53.140;8.904;2024-02-04T03:57:13;7.10;99.90
11855;DHT22;5987;53.140;8.904;2024-02-04T04:00:17;7.10;99.90
11855;DHT22;5987;53.140;8.904;2024-02-04T04:03:21;7.10;99.90
11855;DHT22;5987;53.140;8.904;2024-02-04T04:06:25;7.10;99.90
11855;DHT22;5987;53.140;8.904;2024-02-04T04:09:29;7.10;99.90
11855;DHT22;5987;53.140;8.904;2024-02-04T04:12:34;7.10;99.90
11855;DHT22;5987;53.140;8.904;2024-02-04T04:15:38;7.10;99.90
11855;DHT22;5987;53.140;8.904;2024-02-04T04:18:41;7.10;99.90
11855;DHT22;5987;53.140;8.904;2024-02-04T04:21:45;7.10;99.90
11855;DHT22;5987;53.140;8.904;2024-02-04T04:24:49;7.10;99.90
11855;DHT22;5987;53.140;8.904;2024-02-04T04:27:54;7.10;99.90
11855;DHT22;5987;53.140;8.904;2024-02-04T04:30:59;7.10;99.90
11855;DHT22;5987;53.140;8.904;2024-02-04T04:34:04;7.10;99.90
11855;DHT22;5987;53.140;8.904;2024-02-04T04:37:08;7.10;99.90
11855;DHT22;5987;53.140;8.904;2024-02-04T04:40:12;7.10;99.90
11855;DHT22;5987;53.140;8.904;2024-02-04T04:43:17;7.20;99.90
11855;DHT22;5987;53.140;8.904;2024-02-04T04:46:21;7.20;99.90
11855;DHT22;5987;53.140;8.904;2024-02-04T04:49:24;7.20;99.90
11855;DHT22;5987;53.140;8.904;2024-02-04T04:52:28;7.20;99.90
11855;DHT22;5987;53.140;8.904;2024-02-04T04:55:32;7.20;99.90
11855;DHT22;5987;53.140;8.904;2024-02-04T04:58:37;7.20;99.90
11855;DHT22;5987;53.140;8.904;2024-02-04T05:01:45;7.10;99.90
11855;DHT22;5987;53.140;8.904;2024-02-04T05:04:50;7.00;99.90
11855;DHT22;5987;53.140;8.904;2024-02-04T05:07:53;7.10;99.90
11855;DHT22;5987;53.140;8.904;2024-02-04T05:10:57;7.00;99.90
11855;DHT22;5987;53.140;8.904;2024-02-04T05:14:02;7.00;99.90
11855;DHT22;5987;53.140;8.904;2024-02-04T05:17:06;7.00;99.90
11855;DHT22;5987;53.140;8.904;2024-02-04T05:20:10;7.00;99.90
11855;DHT22;5987;53.140;8.904;2024-02-04T05:23:14;6.90;99.90
11855;DHT22;5987;53.140;8.904;2024-02-04T05:26:17;7.00;99.90
11855;DHT22;5987;53.140;8.904;2024-02-04T05:29:23;6.90;99.90
11855;DHT22;5987;53.140;8.904;2024-02-04T05:32:26;7.00;99.90
11855;DHT22;5987;53.140;8.904;2024-02-04T05:35:30;7.00;99.90
11855;DHT22;5987;53.140;8.904;2024-02-04T05:38:34;7.00;99.90
11855;DHT22;5987;53.140;8.904;2024-02-04T05:41:38;7.00;99.90
11855;DHT22;5987;53.140;8.904;2024-02-04T05:44:43;7.00;99.90
11855;DHT22;5987;53.140;8.904;2024-02-04T05:47:47;7.00;99.90
11855;DHT22;5987;53.140;8.904;2024-02-04T05:50:51;7.00;99.90
11855;DHT22;5987;53.140;8.904;2024-02-04T05:53:55;7.00;99.90
11855;DHT22;5987;53.140;8.904;2024-02-04T05:56:58;7.00;99.90
11855;DHT22;5987;53.140;8.904;2024-02-04T06:00:05;7.00;99.90
11855;DHT22;5987;53.140;8.904;2024-02-04T06:03:09;7.00;99.90
11855;DHT22;5987;53.140;8.904;2024-02-04T06:06:15;7.00;99.90
11855;DHT22;5987;53.140;8.904;2024-02-04T06:09:21;7.00;99.90
11855;DHT22;5987;53.140;8.904;2024-02-04T06:12:25;7.00;99.90
11855;DHT22;5987;53.140;8.904;2024-02-04T06:15:30;7.00;99.90
11855;DHT22;5987;53.140;8.904;2024-02-04T06:18:35;7.00;99.90
11855;DHT22;5987;53.140;8.904;2024-02-04T06:21:40;7.00;99.90
11855;DHT22;5987;53.140;8.904;2024-02-04T06:24:44;7.00;99.90
11855;DHT22;5987;53.140;8.904;2024-02-04T06:27:47;7.00;99.90
11855;DHT22;5987;53.140;8.904;2024-02-04T06:30:53;7.00;99.90
11855;DHT22;5987;53.140;8.904;2024-02-04T06:33:57;7.00;99.90
11855;DHT22;5987;53.140;8.904;2024-02-04T06:37:01;7.00;99.90
11855;DHT22;5987;53.140;8.904;2024-02-04T06:40:07;7.00;99.90
11855;DHT22;5987;53.140;8.904;2024-02-04T06:43:11;7.00;99.90
11855;DHT22;5987;53.140;8.904;2024-02-04T06:46:25;7.00;99.90
11855;DHT22;5987;53.140;8.904;2024-02-04T06:49:29;7.00;99.90
11855;DHT22;5987;53.140;8.904;2024-02-04T06:52:33;7.00;99.90
11855;DHT22;5987;53.140;8.904;2024-02-04T06:55:36;7.00;99.90
11855;DHT22;5987;53.140;8.904;2024-02-04T06:58:42;7.10;99.90
11855;DHT22;5987;53.140;8.904;2024-02-04T07:01:47;7.10;99.90
11855;DHT22;5987;53.140;8.904;2024-02-04T07:04:52;7.10;99.90
11855;DHT22;5987;53.140;8.904;2024-02-04T07:07:56;7.10;99.90
11855;DHT22;5987;53.140;8.904;2024-02-04T07:11:00;7.10;99.90
11855;DHT22;5987;53.140;8.904;2024-02-04T07:14:05;7.20;99.90
11855;DHT22;5987;53.140;8.904;2024-02-04T07:17:11;7.20;99.90
11855;DHT22;5987;53.140;8.904;2024-02-04T07:20:15;6.50;99.90
11855;DHT22;5987;53.140;8.904;2024-02-04T07:23:19;7.20;99.90
11855;DHT22;5987;53.140;8.904;2024-02-04T07:26:23;7.20;99.90
11855;DHT22;5987;53.140;8.904;2024-02-04T07:29:27;7.20;99.90
11855;DHT22;5987;53.140;8.904;2024-02-04T07:32:32;7.30;99.90
11855;DHT22;5987;53.140;8.904;2024-02-04T07:35:40;7.30;99.90
11855;DHT22;5987;53.140;8.904;2024-02-04T07:38:44;7.30;99.90
11855;DHT22;5987;53.140;8.904;2024-02-04T07:41:47;7.30;99.90
11855;DHT22;5987;53.140;8.904;2024-02-04T07:44:52;7.30;99.90
11855;DHT22;5987;53.140;8.904;2024-02-04T07:47:57;7.40;99.90
11855;DHT22;5987;53.140;8.904;2024-02-04T07:51:02;7.40;99.90
11855;DHT22;5987;53.140;8.904;2024-02-04T07:54:06;7.40;99.90
11855;DHT22;5987;53.140;8.904;2024-02-04T07:57:09;7.40;99.90
11855;DHT22;5987;53.140;8.904;2024-02-04T08:00:14;7.40;99.90
11855;DHT22;5987;53.140;8.904;2024-02-04T08:03:19;7.50;99.90
11855;DHT22;5987;53.140;8.904;2024-02-04T08:06:23;7.50;99.90
11855;DHT22;5987;53.140;8.904;2024-02-04T08:09:27;7.50;99.90
11855;DHT22;5987;53.140;8.904;2024-02-04T08:12:30;7.50;99.90
11855;DHT22;5987;53.140;8.904;2024-02-04T08:15:34;7.50;99.90
11855;DHT22;5987;53.140;8.904;2024-02-04T08:18:39;7.50;99.90
11855;DHT22;5987;53.140;8.904;2024-02-04T08:21:44;7.60;99.90
11855;DHT22;5987;53.140;8.904;2024-02-04T08:24:47;7.60;99.90
11855;DHT22;5987;53.140;8.904;2024-02-04T08:27:52;7.70;99.90
11855;DHT22;5987;53.140;8.904;2024-02-04T08:30:59;7.70;99.90
11855;DHT22;5987;53.140;8.904;2024-02-04T08:34:04;7.70;99.90
11855;DHT22;5987;53.140;8.904;2024-02-04T08:37:09;7.70;99.90
11855;DHT22;5987;53.140;8.904;2024-02-04T08:40:13;7.70;99.90
11855;DHT22;5987;53.140;8.904;2024-02-04T08:43:17;7.80;99.90
11855;DHT22;5987;53.140;8.904;2024-02-04T08:46:21;7.80;99.90
11855;DHT22;5987;53.140;8.904;2024-02-04T08:49:26;7.80;99.90
11855;DHT22;5987;53.140;8.904;2024-02-04T08:52:30;7.80;99.90
11855;DHT22;5987;53.140;8.904;2024-02-04T08:55:34;7.80;99.90
11855;DHT22;5987;53.140;8.904;2024-02-04T08:58:37;7.90;99.90
11855;DHT22;5987;53.140;8.904;2024-02-04T09:01:41;7.90;99.90
11855;DHT22;5987;53.140;8.904;2024-02-04T09:04:46;7.90;99.90
11855;DHT22;5987;53.140;8.904;2024-02-04T09:07:51;7.90;99.90
11855;DHT22;5987;53.140;8.904;2024-02-04T09:10:57;7.90;99.90
11855;DHT22;5987;53.140;8.904;2024-02-04T09:14:01;8.00;99.90
11855;DHT22;5987;53.140;8.904;2024-02-04T09:17:06;8.00;99.90
11855;DHT22;5987;53.140;8.904;2024-02-04T09:20:12;8.00;99.90
11855;DHT22;5987;53.140;8.904;2024-02-04T09:23:17;8.10;99.90
11855;DHT22;5987;53.140;8.904;2024-02-04T09:26:21;8.10;99.90
11855;DHT22;5987;53.140;8.904;2024-02-04T09:29:25;8.10;99.90
11855;DHT22;5987;53.140;8.904;2024-02-04T09:32:28;8.10;99.90
11855;DHT22;5987;53.140;8.904;2024-02-04T09:35:34;8.10;99.90
11855;DHT22;5987;53.140;8.904;2024-02-04T09:38:38;8.20;99.90
11855;DHT22;5987;53.140;8.904;2024-02-04T09:41:43;8.20;99.90
11855;DHT22;5987;53.140;8.904;2024-02-04T09:44:47;8.20;99.90
11855;DHT22;5987;53.140;8.904;2024-02-04T09:47:53;8.20;99.90
11855;DHT22;5987;53.140;8.904;2024-02-04T09:50:59;8.20;99.90
11855;DHT22;5987;53.140;8.904;2024-02-04T09:54:04;8.30;99.90
11855;DHT22;5987;53.140;8.904;2024-02-04T09:57:09;8.40;99.90
11855;DHT22;5987;53.140;8.904;2024-02-04T10:00:14;8.50;99.90
11855;DHT22;5987;53.140;8.904;2024-02-04T10:03:22;8.50;99.90
11855;DHT22;5987;53.140;8.904;2024-02-04T10:06:27;9.20;99.90
11855;DHT22;5987;53.140;8.904;2024-02-04T10:09:32;8.60;99.90
11855;DHT22;5987;53.140;8.904;2024-02-04T10:12:36;8.60;99.90
11855;DHT22;5987;53.140;8.904;2024-02-04T10:15:43;8.60;99.90
11855;DHT22;5987;53.140;8.904;2024-02-04T10:18:47;8.60;99.90
11855;DHT22;5987;53.140;8.904;2024-02-04T10:21:59;8.60;99.90
11855;DHT22;5987;53.140;8.904;2024-02-04T10:25:07;8.60;99.90
11855;DHT22;5987;53.140;8.904;2024-02-04T10:28:11;8.70;99.90
11855;DHT22;5987;53.140;8.904;2024-02-04T10:31:16;8.70;99.90
11855;DHT22;5987;53.140;8.904;2024-02-04T10:34:20;8.70;99.90
11855;DHT22;5987;53.140;8.904;2024-02-04T10:37:25;8.70;99.90
11855;DHT22;5987;53.140;8.904;2024-02-04T10:40:31;8.80;99.90
11855;DHT22;5987;53.140;8.904;2024-02-04T10:43:35;8.80;99.90
11855;DHT22;5987;53.140;8.904;2024-02-04T10:46:40;8.90;99.90
11855;DHT22;5987;53.140;8.904;2024-02-04T10:49:50;9.00;99.90
11855;DHT22;5987;53.140;8.904;2024-02-04T10:52:59;9.00;99.90
11855;DHT22;5987;53.140;8.904;2024-02-04T10:56:14;9.10;99.90
11855;DHT22;5987;53.140;8.904;2024-02-04T10:59:24;9.10;99.90
11855;DHT22;5987;53.140;8.904;2024-02-04T11:02:33;9.20;99.90
11855;DHT22;5987;53.140;8.904;2024-02-04T11:05:39;9.30;99.90
11855;DHT22;5987;53.140;8.904;2024-02-04T11:08:47;9.30;99.90
11855;DHT22;5987;53.140;8.904;2024-02-04T11:11:52;9.30;99.90
11855;DHT22;5987;53.140;8.904;2024-02-04T11:15:02;9.40;99.90
11855;DHT22;5987;53.140;8.904;2024-02-04T11:18:44;9.30;99.90
11855;DHT22;5987;53.140;8.904;2024-02-04T11:25:46;9.30;99.90
11855;DHT22;5987;53.140;8.904;2024-02-04T11:28:53;9.30;99.90
11855;DHT22;5987;53.140;8.904;2024-02-04T11:31:57;9.30;99.90
11855;DHT22;5987;53.140;8.904;2024-02-04T11:35:02;9.30;99.90
11855;DHT22;5987;53.140;8.904;2024-02-04T11:38:10;9.30;99.90
11855;DHT22;5987;53.140;8.904;2024-02-04T11:41:23;9.30;99.90
11855;DHT22;5987;53.140;8.904;2024-02-04T11:44:29;9.30;99.90
11855;DHT22;5987;53.140;8.904;2024-02-04T11:47:34;9.40;99.90
11855;DHT22;5987;53.140;8.904;2024-02-04T11:50:38;9.40;99.90
11855;DHT22;5987;53.140;8.904;2024-02-04T11:53:43;9.50;99.90
11855;DHT22;5987;53.140;8.904;2024-02-04T11:56:50;9.50;99.90
11855;DHT22;5987;53.140;8.904;2024-02-04T11:59:57;9.60;99.90
11855;DHT22;5987;53.140;8.904;2024-02-04T12:03:03;9.60;99.90
11855;DHT22;5987;53.140;8.904;2024-02-04T12:06:08;9.60;99.90
11855;DHT22;5987;53.140;8.904;2024-02-04T12:09:17;9.60;99.90
11855;DHT22;5987;53.140;8.904;2024-02-04T12:12:26;9.60;99.90
11855;DHT22;5987;53.140;8.904;2024-02-04T12:15:50;9.60;99.90
11855;DHT22;5987;53.140;8.904;2024-02-04T12:18:55;9.60;99.90
11855;DHT22;5987;53.140;8.904;2024-02-04T12:21:59;9.60;99.90
11855;DHT22;5987;53.140;8.904;2024-02-04T12:25:04;9.60;99.90
11855;DHT22;5987;53.140;8.904;2024-02-04T12:28:14;9.50;99.90
11855;DHT22;5987;53.140;8.904;2024-02-04T12:31:19;9.50;99.90
11855;DHT22;5987;53.140;8.904;2024-02-04T12:34:26;9.50;99.90
11855;DHT22;5987;53.140;8.904;2024-02-04T12:37:30;9.40;99.90
11855;DHT22;5987;53.140;8.904;2024-02-04T12:40:36;9.50;99.90
11855;DHT22;5987;53.140;8.904;2024-02-04T12:43:42;9.50;99.90
11855;DHT22;5987;53.140;8.904;2024-02-04T12:46:52;9.50;99.90
11855;DHT22;5987;53.140;8.904;2024-02-04T12:50:01;9.50;99.90
11855;DHT22;5987;53.140;8.904;2024-02-04T12:53:06;8.70;99.90
11855;DHT22;5987;53.140;8.904;2024-02-04T12:56:13;9.50;99.90
11855;DHT22;5987;53.140;8.904;2024-02-04T12:59:29;9.50;99.90
11855;DHT22;5987;53.140;8.904;2024-02-04T13:02:33;9.40;99.90
11855;DHT22;5987;53.140;8.904;2024-02-04T13:05:38;9.40;99.90
11855;DHT22;5987;53.140;8.904;2024-02-04T13:08:41;9.40;99.90
11855;DHT22;5987;53.140;8.904;2024-02-04T13:11:45;9.40;99.90
11855;DHT22;5987;53.140;8.904;2024-02-04T13:14:51;9.50;99.90
11855;DHT22;5987;53.140;8.904;2024-02-04T13:17:54;9.40;99.90
11855;DHT22;5987;53.140;8.904;2024-02-04T13:20:58;9.40;99.90
11855;DHT22;5987;53.140;8.904;2024-02-04T13:24:02;9.40;99.90
11855;DHT22;5987;53.140;8.904;2024-02-04T13:27:07;9.40;99.90
11855;DHT22;5987;53.140;8.904;2024-02-04T13:30:13;9.40;99.90
11855;DHT22;5987;53.140;8.904;2024-02-04T13:33:17;9.40;99.90
11855;DHT22;5987;53.140;8.904;2024-02-04T13:36:25;9.40;99.90
11855;DHT22;5987;53.140;8.904;2024-02-04T13:39:32;9.40;99.90
11855;DHT22;5987;53.140;8.904;2024-02-04T13:42:36;9.40;99.90
11855;DHT22;5987;53.140;8.904;2024-02-04T13:45:42;9.50;99.90
11855;DHT22;5987;53.140;8.904;2024-02-04T13:48:46;9.50;99.90
11855;DHT22;5987;53.140;8.904;2024-02-04T13:51:50;9.50;99.90
11855;DHT22;5987;53.140;8.904;2024-02-04T13:54:55;9.40;99.90
11855;DHT22;5987;53.140;8.904;2024-02-04T13:57:59;9.20;99.90
11855;DHT22;5987;53.140;8.904;2024-02-04T14:01:05;9.40;99.90
11855;DHT22;5987;53.140;8.904;2024-02-04T14:04:09;9.40;99.90
11855;DHT22;5987;53.140;8.904;2024-02-04T14:07:14;9.30;99.90
11855;DHT22;5987;53.140;8.904;2024-02-04T14:10:18;9.30;99.90
11855;DHT22;5987;53.140;8.904;2024-02-04T14:13:24;9.40;99.90
11855;DHT22;5987;53.140;8.904;2024-02-04T14:16:30;9.30;99.90
11855;DHT22;5987;53.140;8.904;2024-02-04T14:19:34;9.30;99.90
11855;DHT22;5987;53.140;8.904;2024-02-04T14:22:39;8.90;99.90
11855;DHT22;5987;53.140;8.904;2024-02-04T14:25:44;9.20;99.90
11855;DHT22;5987;53.140;8.904;2024-02-04T14:28:51;9.20;99.90
11855;DHT22;5987;53.140;8.904;2024-02-04T14:32:00;9.20;99.90
11855;DHT22;5987;53.140;8.904;2024-02-04T14:35:05;9.30;99.90
11855;DHT22;5987;53.140;8.904;2024-02-04T14:38:11;9.30;99.90
11855;DHT22;5987;53.140;8.904;2024-02-04T14:41:17;9.30;99.90
11855;DHT22;5987;53.140;8.904;2024-02-04T14:44:20;9.20;99.90
11855;DHT22;5987;53.140;8.904;2024-02-04T14:47:26;9.30;99.90
11855;DHT22;5987;53.140;8.904;2024-02-04T14:50:31;9.30;99.90
11855;DHT22;5987;53.140;8.904;2024-02-04T14:53:36;9.30;99.90
11855;DHT22;5987;53.140;8.904;2024-02-04T14:56:41;9.30;99.90
11855;DHT22;5987;53.140;8.904;2024-02-04T14:59:45;9.20;99.90
11855;DHT22;5987;53.140;8.904;2024-02-04T15:02:51;9.20;99.90
11855;DHT22;5987;53.140;8.904;2024-02-04T15:05:55;9.20;99.90
11855;DHT22;5987;53.140;8.904;2024-02-04T15:08:59;9.20;99.90
11855;DHT22;5987;53.140;8.904;2024-02-04T15:12:06;9.10;99.90
11855;DHT22;5987;53.140;8.904;2024-02-04T15:15:11;9.00;99.90
11855;DHT22;5987;53.140;8.904;2024-02-04T15:18:17;9.10;99.90
11855;DHT22;5987;53.140;8.904;2024-02-04T15:21:23;9.10;99.90
11855;DHT22;5987;53.140;8.904;2024-02-04T15:24:29;9.10;99.90
11855;DHT22;5987;53.140;8.904;2024-02-04T15:27:34;9.10;99.90
11855;DHT22;5987;53.140;8.904;2024-02-04T15:30:39;9.00;99.90
11855;DHT22;5987;53.140;8.904;2024-02-04T15:33:46;9.00;99.90
11855;DHT22;5987;53.140;8.904;2024-02-04T15:36:50;9.00;99.90
11855;DHT22;5987;53.140;8.904;2024-02-04T15:39:54;9.00;99.90
11855;DHT22;5987;53.140;8.904;2024-02-04T15:43:03;8.90;99.90
11855;DHT22;5987;53.140;8.904;2024-02-04T15:46:09;8.90;99.90
11855;DHT22;5987;53.140;8.904;2024-02-04T15:49:14;8.90;99.90
11855;DHT22;5987;53.140;8.904;2024-02-04T15:52:22;8.80;99.90
11855;DHT22;5987;53.140;8.904;2024-02-04T15:55:27;8.70;99.90
11855;DHT22;5987;53.140;8.904;2024-02-04T15:58:36;8.60;99.90
11855;DHT22;5987;53.140;8.904;2024-02-04T16:01:42;8.60;99.90
11855;DHT22;5987;53.140;8.904;2024-02-04T16:04:49;8.60;99.90
11855;DHT22;5987;53.140;8.904;2024-02-04T16:07:54;8.60;99.90
11855;DHT22;5987;53.140;8.904;2024-02-04T16:11:04;8.60;99.90
11855;DHT22;5987;53.140;8.904;2024-02-04T16:14:20;8.50;99.90
11855;DHT22;5987;53.140;8.904;2024-02-04T16:17:27;8.50;99.90
11855;DHT22;5987;53.140;8.904;2024-02-04T16:20:37;8.50;99.90
11855;DHT22;5987;53.140;8.904;2024-02-04T16:23:42;8.60;99.90
11855;DHT22;5987;53.140;8.904;2024-02-04T16:26:46;8.50;99.90
11855;DHT22;5987;53.140;8.904;2024-02-04T16:29:50;8.50;99.90
11855;DHT22;5987;53.140;8.904;2024-02-04T16:32:55;8.40;99.90
11855;DHT22;5987;53.140;8.904;2024-02-04T16:36:01;8.50;99.90
11855;DHT22;5987;53.140;8.904;2024-02-04T16:39:08;8.50;99.90
11855;DHT22;5987;53.140;8.904;2024-02-04T16:42:13;8.50;99.90
11855;DHT22;5987;53.140;8.904;2024-02-04T16:45:36;8.50;99.90
11855;DHT22;5987;53.140;8.904;2024-02-04T16:48:42;8.50;99.90
11855;DHT22;5987;53.140;8.904;2024-02-04T16:51:48;8.40;99.90
11855;DHT22;5987;53.140;8.904;2024-02-04T16:54:53;8.40;99.90
11855;DHT22;5987;53.140;8.904;2024-02-04T16:57:57;8.40;99.90
11855;DHT22;5987;53.140;8.904;2024-02-04T17:01:01;8.40;99.90
11855;DHT22;5987;53.140;8.904;2024-02-04T17:04:07;8.40;99.90
11855;DHT22;5987;53.140;8.904;2024-02-04T17:07:13;8.30;99.90
11855;DHT22;5987;53.140;8.904;2024-02-04T17:10:19;8.30;99.90
11855;DHT22;5987;53.140;8.904;2024-02-04T17:13:24;8.30;99.90
11855;DHT22;5987;53.140;8.904;2024-02-04T17:16:33;8.30;99.90
11855;DHT22;5987;53.140;8.904;2024-02-04T17:19:52;8.30;99.90
11855;DHT22;5987;53.140;8.904;2024-02-04T17:23:19;8.30;99.90
11855;DHT22;5987;53.140;8.904;2024-02-04T17:26:27;8.30;99.90
11855;DHT22;5987;53.140;8.904;2024-02-04T17:29:36;8.30;99.90
11855;DHT22;5987;53.140;8.904;2024-02-04T17:32:42;8.30;99.90
11855;DHT22;5987;53.140;8.904;2024-02-04T17:35:50;8.20;99.90
11855;DHT22;5987;53.140;8.904;2024-02-04T17:38:56;8.30;99.90
11855;DHT22;5987;53.140;8.904;2024-02-04T17:42:00;8.20;99.90
11855;DHT22;5987;53.140;8.904;2024-02-04T17:45:11;8.30;99.90
11855;DHT22;5987;53.140;8.904;2024-02-04T17:48:15;8.40;99.90
11855;DHT22;5987;53.140;8.904;2024-02-04T17:51:19;8.40;99.90
11855;DHT22;5987;53.140;8.904;2024-02-04T17:54:25;8.40;99.90
11855;DHT22;5987;53.140;8.904;2024-02-04T17:57:30;8.50;99.90
11855;DHT22;5987;53.140;8.904;2024-02-04T18:00:35;8.50;99.90
11855;DHT22;5987;53.140;8.904;2024-02-04T18:03:39;8.40;99.90
11855;DHT22;5987;53.140;8.904;2024-02-04T18:06:45;8.40;99.90
11855;DHT22;5987;53.140;8.904;2024-02-04T18:09:51;8.40;99.90
11855;DHT22;5987;53.140;8.904;2024-02-04T18:12:58;8.40;99.90
11855;DHT22;5987;53.140;8.904;2024-02-04T18:16:05;8.60;99.90
11855;DHT22;5987;53.140;8.904;2024-02-04T18:19:09;8.50;99.90
11855;DHT22;5987;53.140;8.904;2024-02-04T18:22:14;8.50;99.90
11855;DHT22;5987;53.140;8.904;2024-02-04T18:25:20;8.50;99.90
11855;DHT22;5987;53.140;8.904;2024-02-04T18:28:25;8.50;99.90
11855;DHT22;5987;53.140;8.904;2024-02-04T18:31:31;8.60;99.90
11855;DHT22;5987;53.140;8.904;2024-02-04T18:34:36;8.60;99.90
11855;DHT22;5987;53.140;8.904;2024-02-04T18:37:40;8.60;99.90
11855;DHT22;5987;53.140;8.904;2024-02-04T18:40:46;8.60;99.90
11855;DHT22;5987;53.140;8.904;2024-02-04T18:43:51;8.60;99.90
11855;DHT22;5987;53.140;8.904;2024-02-04T18:46:56;8.60;99.90
11855;DHT22;5987;53.140;8.904;2024-02-04T18:50:00;8.60;99.90
11855;DHT22;5987;53.140;8.904;2024-02-04T18:53:05;8.70;99.90
11855;DHT22;5987;53.140;8.904;2024-02-04T18:56:10;8.70;99.90
11855;DHT22;5987;53.140;8.904;2024-02-04T18:59:18;8.70;99.90
11855;DHT22;5987;53.140;8.904;2024-02-04T19:02:21;8.70;99.90
11855;DHT22;5987;53.140;8.904;2024-02-04T19:05:25;8.70;99.90
11855;DHT22;5987;53.140;8.904;2024-02-04T19:08:30;8.70;99.90
11855;DHT22;5987;53.140;8.904;2024-02-04T19:11:39;8.70;99.90
11855;DHT22;5987;53.140;8.904;2024-02-04T19:14:46;8.70;99.90
11855;DHT22;5987;53.140;8.904;2024-02-04T19:17:51;8.70;99.90
11855;DHT22;5987;53.140;8.904;2024-02-04T19:20:55;8.80;99.90
11855;DHT22;5987;53.140;8.904;2024-02-04T19:24:02;8.80;99.90
11855;DHT22;5987;53.140;8.904;2024-02-04T19:27:08;8.80;99.90
11855;DHT22;5987;53.140;8.904;2024-02-04T19:30:14;8.70;99.90
11855;DHT22;5987;53.140;8.904;2024-02-04T19:33:18;8.80;99.90
11855;DHT22;5987;53.140;8.904;2024-02-04T19:36:27;8.80;99.90
11855;DHT22;5987;53.140;8.904;2024-02-04T19:39:31;8.80;99.90
11855;DHT22;5987;53.140;8.904;2024-02-04T19:42:37;8.80;99.90
11855;DHT22;5987;53.140;8.904;2024-02-04T19:45:42;8.90;99.90
11855;DHT22;5987;53.140;8.904;2024-02-04T19:48:45;8.90;99.90
11855;DHT22;5987;53.140;8.904;2024-02-04T19:51:49;8.90;99.90
11855;DHT22;5987;53.140;8.904;2024-02-04T19:54:53;9.00;99.90
11855;DHT22;5987;53.140;8.904;2024-02-04T19:57:59;9.00;99.90
11855;DHT22;5987;53.140;8.904;2024-02-04T20:01:04;9.10;99.90
11855;DHT22;5987;53.140;8.904;2024-02-04T20:04:09;9.20;99.90
11855;DHT22;5987;53.140;8.904;2024-02-04T20:07:13;9.30;99.90
11855;DHT22;5987;53.140;8.904;2024-02-04T20:10:17;9.40;99.90
11855;DHT22;5987;53.140;8.904;2024-02-04T20:13:22;9.40;99.90
11855;DHT22;5987;53.140;8.904;2024-02-04T20:16:29;9.50;99.90